Time;durP1;ratioP1;P1;durP2;ratioP2;P2;SDS_P1;SDS_P2;PMS_P1;PMS_P2;Temp;Humidity;BMP_temperature;BMP_pressure;BME280_temperature;BME280_humidity;BME280_pressure;Samples;Min_cycle;Max_cycle;Signal;HPM_P1;HPM_P2
2022/03/23 00:01:52;;;;;;;23.02;15.98;;;28.00;95.30;;;;;;1888337;75;21229;-84
2022/03/23 00:04:24;;;;;;;19.57;13.80;;;28.00;95.30;;;;;;1888112;75;21180;-85
2022/03/23 00:06:55;;;;;;;18.90;14.25;;;28.00;95.20;;;;;;1884898;75;21099;-85
2022/03/23 00:09:26;;;;;;;20.70;14.15;;;28.00;95.10;;;;;;1883577;75;21137;-84
2022/03/23 00:11:58;;;;;;;25.08;14.38;;;28.10;95.10;;;;;;1885180;75;21267;-85
2022/03/23 00:14:29;;;;;;;22.02;14.13;;;28.00;95.00;;;;;;1897631;75;21177;-86
2022/03/23 00:17:00;;;;;;;23.87;14.68;;;28.10;95.10;;;;;;1851043;76;21405;-85
2022/03/23 00:19:31;;;;;;;19.07;13.88;;;28.10;95.10;;;;;;1867262;75;21200;-83
2022/03/23 00:22:04;;;;;;;18.55;14.40;;;28.10;95.00;;;;;;1853075;76;21162;-84
2022/03/23 00:24:34;;;;;;;22.07;15.48;;;28.00;95.00;;;;;;1855035;76;21092;-86
2022/03/23 00:27:06;;;;;;;19.65;13.78;;;28.00;95.00;;;;;;1830771;78;21191;-85
2022/03/23 00:29:37;;;;;;;21.07;14.18;;;28.10;95.10;;;;;;1827325;77;21174;-84
2022/03/23 00:32:08;;;;;;;20.85;13.55;;;28.10;95.10;;;;;;1893521;75;21156;-85
2022/03/23 00:34:41;;;;;;;20.52;12.55;;;28.10;95.00;;;;;;1853760;76;21098;-84
2022/03/23 00:37:13;;;;;;;17.87;11.43;;;28.10;94.90;;;;;;1829764;77;21581;-83
2022/03/23 00:39:44;;;;;;;14.98;9.58;;;28.20;94.60;;;;;;1836761;78;21184;-83
2022/03/23 00:42:15;;;;;;;17.60;11.08;;;28.20;94.50;;;;;;1854779;76;21224;-80
2022/03/23 00:44:46;;;;;;;14.35;9.88;;;28.20;94.70;;;;;;1838014;78;21551;-80
2022/03/23 00:47:20;;;;;;;14.50;9.48;;;28.20;94.50;;;;;;1852561;76;21181;-80
2022/03/23 00:49:51;;;;;;;16.55;9.18;;;28.20;94.50;;;;;;1845147;76;21129;-81
2022/03/23 00:52:22;;;;;;;14.83;8.23;;;28.20;94.30;;;;;;1849588;77;21052;-81
2022/03/23 00:54:59;;;;;;;12.50;9.38;;;28.20;94.30;;;;;;1852888;76;21243;-81
2022/03/23 00:57:48;;;;;;;14.50;8.98;;;28.30;94.30;;;;;;1853367;76;21237;-81
2022/03/23 01:00:16;;;;;;;12.13;8.98;;;28.20;94.10;;;;;;1861488;76;21100;-82
2022/03/23 01:02:48;;;;;;;12.68;8.48;;;28.30;94.10;;;;;;1854039;76;21156;-81
2022/03/23 01:05:19;;;;;;;11.68;9.08;;;28.30;94.20;;;;;;1835809;78;21685;-82
2022/03/23 01:07:50;;;;;;;12.55;8.20;;;28.40;93.90;;;;;;1854478;76;21138;-82
2022/03/23 01:10:21;;;;;;;11.30;8.30;;;28.40;94.00;;;;;;1853159;77;21130;-81
2022/03/23 01:12:54;;;;;;;12.85;8.40;;;28.40;93.80;;;;;;1857184;76;21647;-81
2022/03/23 01:15:24;;;;;;;10.38;7.53;;;28.50;93.70;;;;;;1852280;76;21202;-80
2022/03/23 01:17:56;;;;;;;12.15;8.38;;;28.50;93.70;;;;;;1851995;76;21169;-82
2022/03/23 01:20:32;;;;;;;11.88;8.73;;;28.60;93.60;;;;;;1860224;76;21146;-82
2022/03/23 01:23:04;;;;;;;11.88;8.30;;;28.70;93.50;;;;;;1890335;75;21142;-82
2022/03/23 01:25:40;;;;;;;17.02;10.08;;;28.80;93.40;;;;;;1880774;75;21149;-80
2022/03/23 01:28:30;;;;;;;13.75;9.75;;;28.80;93.30;;;;;;1880612;76;21149;-82
2022/03/23 01:31:01;;;;;;;18.05;10.85;;;28.90;93.60;;;;;;1880170;76;21262;-81
2022/03/23 01:33:42;;;;;;;11.43;8.63;;;28.90;93.30;;;;;;1880270;75;21146;-82
2022/03/23 01:36:13;;;;;;;13.62;9.38;;;29.00;93.20;;;;;;1881206;76;21143;-81
2022/03/23 01:38:48;;;;;;;14.15;9.63;;;29.00;93.00;;;;;;1879356;75;21130;-82
2022/03/23 01:41:25;;;;;;;12.20;7.62;;;29.00;92.90;;;;;;1879223;76;21145;-81
2022/03/23 01:43:56;;;;;;;11.35;7.67;;;29.10;92.60;;;;;;1871396;76;21087;-82
2022/03/23 01:46:27;;;;;;;11.80;7.95;;;29.10;92.40;;;;;;1879642;75;21668;-82
2022/03/23 01:48:58;;;;;;;10.03;6.95;;;29.10;92.20;;;;;;1878624;76;21123;-80
2022/03/23 01:51:28;;;;;;;8.70;6.67;;;29.20;92.00;;;;;;1879491;76;21204;-81
2022/03/23 01:53:59;;;;;;;10.30;6.65;;;29.20;91.90;;;;;;1879498;75;21206;-81
2022/03/23 01:56:30;;;;;;;8.70;6.37;;;29.30;91.70;;;;;;1879393;76;21132;-73
2022/03/23 01:59:02;;;;;;;9.18;6.03;;;29.40;91.30;;;;;;1877784;76;21115;-73
2022/03/23 02:01:33;;;;;;;9.43;6.70;;;29.40;91.00;;;;;;1879218;76;21654;-74
2022/03/23 02:04:05;;;;;;;14.55;7.35;;;29.40;91.20;;;;;;1834127;76;21685;-73
2022/03/23 02:06:37;;;;;;;10.72;6.85;;;29.50;91.30;;;;;;1877064;76;21739;-72
2022/03/23 02:09:08;;;;;;;11.33;6.87;;;29.50;91.20;;;;;;1875630;76;21199;-72
2022/03/23 02:11:41;;;;;;;8.63;6.12;;;29.60;91.20;;;;;;1876716;76;21159;-73
2022/03/23 02:14:13;;;;;;;10.38;6.95;;;29.60;91.10;;;;;;1879955;75;21572;-74
2022/03/23 02:16:46;;;;;;;9.33;6.30;;;29.70;90.70;;;;;;1875239;76;21187;-71
2022/03/23 02:19:17;;;;;;;11.05;6.80;;;29.80;90.50;;;;;;1877296;75;21175;-72
2022/03/23 02:22:06;;;;;;;14.35;7.60;;;29.90;90.40;;;;;;1873605;76;21158;-72
2022/03/23 02:24:37;;;;;;;10.20;6.33;;;30.00;90.60;;;;;;1885952;74;21123;-73
2022/03/23 02:27:08;;;;;;;19.55;8.00;;;30.10;89.90;;;;;;1892862;74;21479;-73
2022/03/23 02:29:40;;;;;;;13.15;6.85;;;30.20;90.10;;;;;;1883786;74;21118;-73
2022/03/23 02:32:13;;;;;;;9.08;6.10;;;30.20;90.10;;;;;;1893031;75;21574;-74
2022/03/23 02:34:43;;;;;;;10.95;7.12;;;30.30;89.30;;;;;;1890534;74;21680;-73
2022/03/23 02:37:16;;;;;;;7.03;5.17;;;30.30;89.50;;;;;;1885198;75;21609;-73
2022/03/23 02:39:48;;;;;;;7.35;5.30;;;30.30;88.20;;;;;;1886545;76;21226;-73
2022/03/23 02:42:19;;;;;;;7.25;5.50;;;30.30;88.00;;;;;;1892551;75;21591;-75
2022/03/23 02:44:50;;;;;;;8.50;5.12;;;30.30;87.90;;;;;;1891000;75;21606;-72
2022/03/23 02:47:23;;;;;;;7.90;4.15;;;30.30;88.40;;;;;;1900998;75;21051;-72
2022/03/23 02:49:54;;;;;;;6.58;3.95;;;30.40;87.60;;;;;;1897475;75;21637;-71
2022/03/23 02:52:25;;;;;;;4.70;3.10;;;30.40;85.90;;;;;;1901444;74;21547;-73
2022/03/23 03:02:40;;;;;;;6.90;4.22;;;30.90;83.10;;;;;;1892746;75;21068;-73
2022/03/23 03:05:14;;;;;;;5.42;4.15;;;31.00;82.70;;;;;;1890866;74;21099;-73
2022/03/23 03:10:18;;;;;;;4.80;4.15;;;31.30;82.70;;;;;;1893385;75;21500;-74
2022/03/23 03:12:50;;;;;;;6.87;3.98;;;31.50;82.10;;;;;;1900159;75;21147;-73
2022/03/23 03:15:22;;;;;;;4.65;3.65;;;31.70;80.60;;;;;;1887201;75;21075;-74
2022/03/23 03:17:55;;;;;;;6.05;3.83;;;31.90;80.80;;;;;;1899038;75;21083;-74
2022/03/23 03:20:26;;;;;;;6.30;4.22;;;32.00;79.20;;;;;;1890640;75;21236;-74
2022/03/23 03:22:58;;;;;;;6.72;3.75;;;32.20;78.80;;;;;;1897265;75;21123;-73
2022/03/23 03:25:32;;;;;;;5.90;3.72;;;32.30;78.20;;;;;;1885799;75;21095;-73
2022/03/23 03:28:03;;;;;;;5.20;3.33;;;32.40;76.70;;;;;;1897293;75;21123;-74
2022/03/23 03:30:34;;;;;;;3.98;3.40;;;32.40;76.30;;;;;;1885783;75;21572;-73
2022/03/23 03:33:05;;;;;;;5.20;3.17;;;32.30;77.60;;;;;;1825957;77;21515;-73
2022/03/23 03:35:35;;;;;;;4.80;3.30;;;32.20;78.30;;;;;;1882142;75;21680;-73
2022/03/23 03:38:07;;;;;;;4.97;3.17;;;32.20;77.30;;;;;;1888006;74;21649;-73
2022/03/23 03:40:38;;;;;;;6.03;2.92;;;32.20;77.60;;;;;;1883261;75;21189;-72
2022/03/23 03:43:09;;;;;;;3.30;2.70;;;32.30;76.30;;;;;;1883757;74;21185;-70
2022/03/23 03:45:40;;;;;;;4.97;3.08;;;32.30;75.30;;;;;;1884195;75;21547;-73
2022/03/23 03:48:14;;;;;;;3.92;3.10;;;32.30;76.70;;;;;;1839010;74;21208;-72
2022/03/23 03:50:45;;;;;;;4.83;2.83;;;32.30;75.70;;;;;;1931514;73;21137;-72
2022/03/23 03:53:19;;;;;;;4.35;2.67;;;32.20;75.40;;;;;;1933819;73;21487;-73
2022/03/23 03:55:51;;;;;;;4.90;3.17;;;32.30;74.60;;;;;;1933591;73;21133;-74
2022/03/23 03:58:22;;;;;;;6.20;3.20;;;32.30;74.80;;;;;;1934631;73;21119;-74
2022/03/23 04:00:56;;;;;;;4.42;3.30;;;32.40;74.40;;;;;;1933732;73;21573;-74
2022/03/23 04:03:27;;;;;;;4.67;3.33;;;32.40;74.70;;;;;;1927705;74;21184;-73
2022/03/23 04:05:58;;;;;;;4.40;3.30;;;32.50;75.00;;;;;;1890509;75;21605;-74
2022/03/23 04:08:30;;;;;;;5.30;3.33;;;32.50;74.70;;;;;;1890875;74;21191;-74
2022/03/23 04:11:00;;;;;;;5.47;3.50;;;32.50;75.10;;;;;;1888554;75;21550;-73
2022/03/23 04:13:31;;;;;;;8.45;3.45;;;32.40;74.20;;;;;;1894168;74;21146;-72
2022/03/23 04:16:03;;;;;;;2.90;2.42;;;32.50;75.30;;;;;;1886330;76;21193;-73
2022/03/23 04:18:34;;;;;;;7.03;2.90;;;32.70;75.50;;;;;;1892266;75;21551;-73
2022/03/23 04:21:05;;;;;;;4.97;2.60;;;32.80;73.90;;;;;;1855977;76;21127;-74
2022/03/23 04:23:36;;;;;;;3.83;3.22;;;33.00;73.40;;;;;;1856168;75;21185;-71
2022/03/23 04:26:07;;;;;;;3.35;3.00;;;33.00;71.10;;;;;;1890940;74;21162;-73
2022/03/23 04:28:39;;;;;;;4.62;3.00;;;33.20;71.60;;;;;;1891537;75;21680;-74
2022/03/23 04:31:10;;;;;;;5.95;2.80;;;33.20;72.40;;;;;;1889576;74;21215;-74
2022/03/23 04:33:41;;;;;;;4.90;2.87;;;33.20;72.00;;;;;;1891001;74;22280;-73
2022/03/23 04:36:12;;;;;;;4.55;3.08;;;33.20;71.70;;;;;;1890190;74;21170;-74
2022/03/23 04:38:43;;;;;;;4.67;3.02;;;33.20;71.70;;;;;;1891015;75;21157;-73
2022/03/23 04:41:14;;;;;;;4.85;3.05;;;33.20;71.40;;;;;;1858961;77;21162;-73
2022/03/23 04:43:45;;;;;;;4.17;2.80;;;33.20;72.40;;;;;;1890589;75;21117;-73
2022/03/23 04:46:16;;;;;;;4.92;2.98;;;33.20;71.60;;;;;;1890806;74;21547;-82
2022/03/23 04:48:48;;;;;;;6.30;2.95;;;33.30;71.00;;;;;;1889900;74;21149;-81
2022/03/23 04:51:18;;;;;;;4.15;2.62;;;33.40;70.80;;;;;;1897217;74;21208;-82
2022/03/23 04:53:49;;;;;;;3.98;2.80;;;33.50;71.20;;;;;;1887068;74;21091;-81
2022/03/23 04:56:20;;;;;;;6.40;3.00;;;33.50;70.70;;;;;;1891907;76;21162;-82
2022/03/23 04:58:54;;;;;;;5.00;2.98;;;33.50;70.70;;;;;;1880881;75;21119;-82
2022/03/23 05:01:24;;;;;;;4.00;2.52;;;33.50;71.10;;;;;;1848459;75;22147;-81
2022/03/23 05:03:57;;;;;;;6.30;2.72;;;33.40;70.00;;;;;;1891964;74;21109;-82
2022/03/23 05:06:28;;;;;;;4.83;2.87;;;33.50;69.80;;;;;;1859949;75;21133;-74
2022/03/23 05:09:07;;;;;;;6.03;2.67;;;33.40;72.80;;;;;;1858435;74;21565;-72
2022/03/23 05:11:38;;;;;;;3.20;2.77;;;33.40;71.00;;;;;;1859277;76;21686;-73
2022/03/23 05:14:09;;;;;;;4.87;3.15;;;33.40;70.50;;;;;;1890000;76;21907;-73
2022/03/23 05:16:40;;;;;;;4.25;3.47;;;33.30;70.40;;;;;;1891607;74;21794;-76
2022/03/23 05:19:11;;;;;;;5.42;2.80;;;33.10;71.90;;;;;;1859078;75;21417;-74
2022/03/23 05:21:47;;;;;;;4.00;3.00;;;33.00;72.40;;;;;;1889244;74;21706;-74
2022/03/23 05:24:21;;;;;;;4.90;3.08;;;32.90;72.20;;;;;;1850957;75;21189;-73
2022/03/23 05:26:52;;;;;;;4.05;2.58;;;32.80;72.80;;;;;;1886259;76;21184;-74
2022/03/23 05:29:23;;;;;;;3.50;2.83;;;32.80;72.40;;;;;;1851009;75;21137;-75
2022/03/23 05:31:54;;;;;;;6.35;3.12;;;32.70;72.10;;;;;;1859272;75;21146;-74
2022/03/23 05:34:25;;;;;;;3.98;3.05;;;32.70;73.00;;;;;;1886859;74;21203;-73
2022/03/23 05:36:57;;;;;;;3.75;2.70;;;32.70;72.60;;;;;;1859429;75;21590;-72
2022/03/23 05:39:28;;;;;;;3.45;2.60;;;32.80;72.00;;;;;;1882619;76;21101;-74
2022/03/23 05:41:58;;;;;;;4.60;3.25;;;32.90;71.30;;;;;;1889276;74;21200;-74
2022/03/23 05:44:29;;;;;;;3.98;3.00;;;33.00;70.50;;;;;;1870121;75;21224;-73
2022/03/23 05:47:00;;;;;;;4.03;2.67;;;33.20;71.40;;;;;;1864344;76;21242;-75
2022/03/23 05:49:33;;;;;;;4.15;2.85;;;33.30;71.00;;;;;;1859285;75;21289;-74
2022/03/23 05:52:05;;;;;;;3.58;3.20;;;33.50;72.10;;;;;;1861445;75;21095;-74
2022/03/23 05:54:36;;;;;;;4.55;3.10;;;33.50;70.40;;;;;;1854472;76;21188;-72
2022/03/23 05:57:08;;;;;;;4.45;3.00;;;33.50;69.50;;;;;;1895243;75;21606;-73
2022/03/23 05:59:39;;;;;;;5.05;2.92;;;33.50;68.60;;;;;;1896589;74;21639;-73
2022/03/23 06:02:10;;;;;;;5.67;2.77;;;33.60;68.80;;;;;;1862141;77;21131;-74
2022/03/23 06:04:48;;;;;;;4.55;2.85;;;33.60;67.60;;;;;;1900938;74;21079;-73
2022/03/23 06:07:19;;;;;;;3.85;2.83;;;33.60;66.40;;;;;;1897320;74;21118;-75
2022/03/23 06:09:49;;;;;;;4.87;2.10;;;33.60;66.70;;;;;;1901148;74;21154;-73
2022/03/23 06:12:22;;;;;;;3.30;2.27;;;33.80;64.90;;;;;;1892007;75;21111;-72
2022/03/23 06:14:53;;;;;;;3.15;1.75;;;33.80;65.60;;;;;;1856923;75;21524;-74
2022/03/23 06:17:24;;;;;;;2.87;2.22;;;33.90;64.50;;;;;;1864844;75;21142;-74
2022/03/23 06:19:55;;;;;;;4.65;2.58;;;34.00;64.80;;;;;;1891594;74;21839;-73
2022/03/23 06:22:27;;;;;;;3.12;2.40;;;34.10;67.00;;;;;;1889424;74;21141;-75
2022/03/23 06:24:57;;;;;;;4.03;2.90;;;34.20;64.60;;;;;;1857907;75;21170;-74
2022/03/23 06:27:28;;;;;;;5.35;2.60;;;34.20;64.10;;;;;;1852780;75;21245;-74
2022/03/23 06:29:59;;;;;;;3.62;2.42;;;34.20;63.20;;;;;;1896543;74;21564;-73
2022/03/23 06:32:30;;;;;;;4.20;2.22;;;34.00;64.20;;;;;;1894704;75;21136;-73
2022/03/23 06:35:02;;;;;;;3.85;2.35;;;34.00;65.20;;;;;;1891031;74;21582;-76
2022/03/23 06:37:34;;;;;;;3.87;2.40;;;33.90;65.30;;;;;;1901197;74;21231;-74
2022/03/23 06:40:07;;;;;;;7.22;3.37;;;33.80;66.10;;;;;;1898438;74;21050;-75
2022/03/23 06:42:38;;;;;;;8.03;3.47;;;33.80;66.70;;;;;;1852620;75;21224;-75
2022/03/23 06:45:11;;;;;;;4.35;2.60;;;33.70;66.80;;;;;;1853470;77;21162;-75
2022/03/23 06:47:42;;;;;;;3.87;2.95;;;33.60;66.80;;;;;;1849994;77;21134;-73
2022/03/23 06:50:13;;;;;;;9.23;3.52;;;33.60;66.70;;;;;;1863460;75;21116;-75
2022/03/23 06:52:44;;;;;;;4.70;2.85;;;33.60;67.30;;;;;;1856315;76;21202;-74
2022/03/23 06:55:15;;;;;;;5.50;2.92;;;33.70;67.20;;;;;;1850252;76;21689;-74
2022/03/23 06:57:46;;;;;;;3.67;2.52;;;33.80;65.90;;;;;;1887312;74;21645;-73
2022/03/23 07:00:17;;;;;;;5.87;3.62;;;33.80;64.80;;;;;;1876720;75;21240;-74
2022/03/23 07:02:50;;;;;;;3.87;2.70;;;33.90;66.10;;;;;;1888189;74;21582;-74
2022/03/23 07:05:23;;;;;;;10.58;3.35;;;33.90;65.40;;;;;;1847592;76;21080;-73
2022/03/23 07:10:26;;;;;;;4.17;2.60;;;34.10;64.50;;;;;;1852831;76;21222;-74
2022/03/23 07:12:59;;;;;;;2.80;2.12;;;34.10;63.40;;;;;;1852637;76;21122;-74
2022/03/23 07:15:29;;;;;;;3.67;2.52;;;34.10;62.90;;;;;;1861151;76;21166;-76
2022/03/23 07:18:00;;;;;;;3.77;2.80;;;34.20;63.90;;;;;;1855161;76;21197;-76
2022/03/23 07:20:31;;;;;;;4.05;2.90;;;34.20;63.00;;;;;;1889873;74;21139;-76
2022/03/23 07:23:03;;;;;;;7.05;3.70;;;34.20;63.10;;;;;;1880619;75;21600;-74
2022/03/23 07:25:35;;;;;;;4.83;2.95;;;34.30;62.80;;;;;;1867057;76;21846;-73
2022/03/23 07:28:06;;;;;;;3.92;2.77;;;34.40;62.40;;;;;;1857805;77;21204;-75
2022/03/23 07:30:56;;;;;;;4.60;2.55;;;34.50;61.70;;;;;;1887500;74;21200;-74
2022/03/23 07:33:30;;;;;;;3.22;2.55;;;34.50;60.90;;;;;;1876560;74;21650;-75
2022/03/23 07:36:22;;;;;;;5.10;2.83;;;34.50;61.00;;;;;;1854991;76;21181;-75
2022/03/23 07:38:59;;;;;;;4.92;2.92;;;34.50;61.30;;;;;;1838781;77;21149;-75
2022/03/23 07:41:45;;;;;;;8.98;2.80;;;34.50;61.90;;;;;;1854737;76;21090;-75
2022/03/23 07:44:18;;;;;;;5.30;3.10;;;34.50;61.20;;;;;;1854636;76;21162;-74
2022/03/23 07:46:49;;;;;;;5.05;3.45;;;34.50;61.60;;;;;;1856185;76;21156;-74
2022/03/23 07:49:19;;;;;;;4.62;3.37;;;34.60;62.40;;;;;;1887337;74;21103;-73
2022/03/23 07:51:51;;;;;;;7.03;3.75;;;34.60;62.40;;;;;;1882857;74;21160;-72
2022/03/23 07:54:21;;;;;;;6.78;3.20;;;34.60;62.90;;;;;;1890977;74;21191;-74
2022/03/23 07:56:52;;;;;;;3.58;2.85;;;34.50;62.60;;;;;;1855067;76;21158;-73
2022/03/23 07:59:23;;;;;;;5.45;3.33;;;34.60;61.90;;;;;;1858892;77;21125;-73
2022/03/23 08:01:54;;;;;;;6.20;3.60;;;34.50;62.60;;;;;;1858746;76;21159;-74
2022/03/23 08:04:25;;;;;;;5.37;3.40;;;34.50;63.50;;;;;;1843705;76;21539;-74
2022/03/23 08:06:57;;;;;;;5.62;3.35;;;34.40;63.80;;;;;;1892462;74;21139;-74
2022/03/23 08:09:28;;;;;;;6.12;3.00;;;34.30;63.80;;;;;;1847081;76;21140;-74
2022/03/23 08:11:59;;;;;;;7.00;3.30;;;34.20;63.80;;;;;;1888768;74;21145;-74
2022/03/23 08:14:30;;;;;;;5.17;3.20;;;34.10;63.70;;;;;;1886318;74;21160;-75
2022/03/23 08:17:01;;;;;;;4.12;2.95;;;34.00;64.20;;;;;;1921438;74;21186;-74
2022/03/23 08:19:32;;;;;;;5.92;3.12;;;34.00;63.70;;;;;;1922608;73;21195;-74
2022/03/23 08:22:04;;;;;;;3.83;3.02;;;33.90;63.50;;;;;;1921802;73;21197;-74
2022/03/23 08:24:36;;;;;;;5.95;3.22;;;33.80;65.30;;;;;;1847251;76;21273;-74
2022/03/23 08:27:25;;;;;;;6.30;3.05;;;33.80;65.10;;;;;;1853904;76;21222;-74
2022/03/23 08:30:14;;;;;;;5.95;3.00;;;33.80;65.30;;;;;;1885158;76;21198;-77
2022/03/23 08:32:45;;;;;;;3.22;2.60;;;33.80;64.60;;;;;;1879467;76;21570;-75
2022/03/23 08:35:16;;;;;;;3.40;2.90;;;33.80;64.90;;;;;;1898045;74;21149;-74
2022/03/23 08:37:48;;;;;;;7.80;3.75;;;33.90;65.20;;;;;;1891664;74;21212;-74
2022/03/23 08:40:18;;;;;;;5.42;3.30;;;33.90;65.20;;;;;;1859004;76;21135;-75
2022/03/23 08:42:50;;;;;;;6.58;3.62;;;33.80;65.30;;;;;;1876353;74;21509;-74
2022/03/23 08:45:21;;;;;;;4.28;3.25;;;33.80;65.00;;;;;;1852020;76;21130;-73
2022/03/23 08:47:53;;;;;;;4.30;2.80;;;33.90;64.90;;;;;;1863192;76;21550;-73
2022/03/23 08:50:24;;;;;;;5.00;3.25;;;34.00;64.10;;;;;;1889448;74;21264;-73
2022/03/23 08:52:55;;;;;;;4.08;2.70;;;34.00;63.90;;;;;;1886455;74;22006;-73
2022/03/23 08:55:28;;;;;;;6.90;2.95;;;34.00;64.30;;;;;;1884547;74;21668;-73
2022/03/23 08:57:58;;;;;;;3.72;2.52;;;34.00;63.60;;;;;;1858052;76;21163;-73
2022/03/23 09:00:29;;;;;;;5.15;2.92;;;34.00;63.80;;;;;;1893378;74;21157;-74
2022/03/23 09:03:00;;;;;;;4.58;2.70;;;34.00;63.00;;;;;;1856945;76;21074;-72
2022/03/23 09:05:31;;;;;;;5.03;3.20;;;34.00;62.70;;;;;;1889375;74;21613;-73
2022/03/23 09:08:03;;;;;;;14.47;3.62;;;34.00;64.30;;;;;;1850616;76;21166;-74
2022/03/23 09:10:34;;;;;;;7.95;3.80;;;33.90;67.00;;;;;;1885151;74;21134;-73
2022/03/23 09:13:05;;;;;;;5.62;3.35;;;33.60;69.70;;;;;;1858037;76;21127;-73
2022/03/23 09:15:36;;;;;;;11.65;3.80;;;33.30;70.90;;;;;;1885759;74;21107;-81
2022/03/23 09:18:07;;;;;;;7.55;3.80;;;32.90;72.90;;;;;;1887511;74;21087;-84
2022/03/23 09:20:38;;;;;;;7.42;4.97;;;32.40;75.30;;;;;;1852942;76;21213;-84
2022/03/23 09:23:09;;;;;;;7.22;4.25;;;31.90;77.20;;;;;;1891232;74;21196;-84
2022/03/23 09:25:40;;;;;;;8.08;4.62;;;31.50;79.00;;;;;;1893487;74;21119;-79
2022/03/23 09:28:12;;;;;;;6.50;4.15;;;31.10;80.60;;;;;;1848926;76;21634;-81
2022/03/23 09:30:43;;;;;;;7.30;4.97;;;31.00;81.70;;;;;;1890657;74;21134;-83
2022/03/23 09:33:22;;;;;;;9.88;6.30;;;30.80;82.70;;;;;;1853471;76;21139;-83
2022/03/23 09:35:53;;;;;;;6.28;4.83;;;30.50;83.40;;;;;;1854331;76;21211;-84
2022/03/23 09:38:24;;;;;;;6.10;4.30;;;30.40;84.10;;;;;;1874477;75;21232;-83
2022/03/23 09:40:56;;;;;;;8.10;4.40;;;30.20;84.00;;;;;;1875582;75;21074;-81
2022/03/23 09:43:27;;;;;;;5.87;4.33;;;30.20;85.00;;;;;;1844834;77;21096;-86
2022/03/23 09:45:57;;;;;;;6.28;4.00;;;30.10;85.00;;;;;;1856309;76;21085;-86
2022/03/23 09:48:33;;;;;;;5.33;3.58;;;30.10;84.90;;;;;;1885635;74;21172;-84
2022/03/23 09:51:03;;;;;;;8.35;5.03;;;30.10;84.90;;;;;;1854136;75;21158;-85
2022/03/23 09:53:35;;;;;;;10.10;5.10;;;30.00;85.20;;;;;;1877668;76;21172;-84
2022/03/23 09:56:07;;;;;;;7.08;3.92;;;29.80;85.50;;;;;;1875850;76;21051;-79
2022/03/23 09:58:38;;;;;;;5.92;3.45;;;29.80;86.00;;;;;;1858951;76;21193;-82
2022/03/23 10:01:14;;;;;;;6.17;3.60;;;29.70;86.00;;;;;;1882238;74;21145;-82
2022/03/23 10:03:48;;;;;;;6.22;3.50;;;29.70;86.70;;;;;;1838140;77;21493;-80
2022/03/23 10:06:20;;;;;;;45.95;6.12;;;29.70;86.10;;;;;;1885122;74;21063;-78
2022/03/23 10:08:56;;;;;;;4.78;2.95;;;29.60;86.40;;;;;;1886886;74;21088;-83
2022/03/23 10:11:30;;;;;;;6.05;3.10;;;29.70;86.20;;;;;;1849730;76;21138;-84
2022/03/23 10:14:03;;;;;;;4.97;2.83;;;29.70;85.50;;;;;;1851235;76;21244;-84
2022/03/23 10:16:36;;;;;;;8.10;2.87;;;29.70;85.40;;;;;;1884078;74;21643;-82
2022/03/23 10:19:07;;;;;;;5.65;2.95;;;29.70;85.10;;;;;;1853066;77;21080;-84
2022/03/23 10:21:40;;;;;;;5.50;3.15;;;29.70;84.90;;;;;;1858734;77;21216;-84
2022/03/23 10:24:10;;;;;;;6.12;3.47;;;29.70;85.00;;;;;;1860297;77;21220;-83
2022/03/23 10:26:42;;;;;;;6.40;3.90;;;29.70;85.50;;;;;;1890950;74;21129;-84
2022/03/23 10:29:15;;;;;;;7.33;3.40;;;29.70;86.30;;;;;;1860347;77;21079;-84
2022/03/23 10:31:46;;;;;;;5.53;3.27;;;29.60;85.90;;;;;;1847288;76;21159;-83
2022/03/23 10:34:17;;;;;;;4.65;3.27;;;29.60;87.30;;;;;;1849731;77;21631;-84
2022/03/23 10:36:47;;;;;;;4.65;3.10;;;29.60;86.80;;;;;;1862742;76;21144;-84
2022/03/23 10:39:20;;;;;;;4.60;3.60;;;29.50;86.90;;;;;;1890815;74;21087;-82
2022/03/23 10:41:57;;;;;;;6.08;3.52;;;29.50;86.70;;;;;;1860326;76;21166;-83
2022/03/23 10:44:28;;;;;;;3.83;3.15;;;29.50;86.70;;;;;;1894024;74;21101;-83
2022/03/23 10:47:01;;;;;;;6.15;3.60;;;29.50;87.30;;;;;;1891862;75;21101;-83
2022/03/23 10:49:33;;;;;;;5.42;3.33;;;29.50;87.20;;;;;;1890349;76;21128;-80
2022/03/23 10:52:07;;;;;;;5.85;3.58;;;29.50;87.30;;;;;;1894399;75;21112;-83
2022/03/23 10:54:38;;;;;;;5.00;3.65;;;29.60;87.40;;;;;;1895730;74;21246;-84
2022/03/23 10:57:13;;;;;;;4.17;3.40;;;29.50;87.50;;;;;;1890234;76;21105;-83
2022/03/23 10:59:48;;;;;;;6.65;3.58;;;29.60;87.40;;;;;;1889355;74;21266;-81
2022/03/23 11:02:19;;;;;;;7.05;4.15;;;29.50;87.50;;;;;;1888791;74;21135;-84
2022/03/23 11:04:56;;;;;;;7.42;4.35;;;29.50;88.40;;;;;;1861923;75;21170;-83
2022/03/23 11:07:26;;;;;;;6.40;4.75;;;29.50;88.10;;;;;;1881268;75;21158;-85
2022/03/23 11:17:40;;;;;;;7.67;4.80;;;29.40;89.80;;;;;;1860068;75;21672;-83
2022/03/23 11:20:11;;;;;;;9.60;4.28;;;29.40;88.90;;;;;;1870843;75;21186;-82
2022/03/23 11:22:42;;;;;;;6.83;4.45;;;29.40;90.30;;;;;;1896552;75;21158;-81
2022/03/23 11:25:12;;;;;;;7.45;4.72;;;29.30;90.20;;;;;;1907953;74;21115;-83
2022/03/23 11:27:43;;;;;;;7.17;4.85;;;29.30;90.20;;;;;;1933722;74;21119;-82
2022/03/23 11:30:25;;;;;;;8.18;4.47;;;29.30;90.20;;;;;;1904323;74;21149;-82
2022/03/23 11:32:51;;;;;;;7.12;4.40;;;29.30;89.80;;;;;;1826896;77;21154;-82
2022/03/23 11:35:26;;;;;;;10.60;5.15;;;29.30;90.20;;;;;;1866396;76;21540;-83
2022/03/23 11:37:57;;;;;;;7.75;4.10;;;29.30;90.20;;;;;;1885410;76;21176;-83
2022/03/23 11:40:31;;;;;;;5.75;3.70;;;29.30;89.80;;;;;;1915839;74;21195;-84
2022/03/23 11:43:05;;;;;;;5.40;3.70;;;29.30;89.90;;;;;;1895902;74;21168;-84
2022/03/23 11:45:36;;;;;;;5.53;3.85;;;29.30;90.10;;;;;;1917374;74;21111;-82
2022/03/23 11:48:10;;;;;;;4.72;3.92;;;29.30;90.40;;;;;;1896401;74;21168;-82
2022/03/23 11:50:44;;;;;;;8.23;4.08;;;29.30;89.60;;;;;;1900609;74;21125;-82
2022/03/23 11:53:35;;;;;;;5.67;3.95;;;29.40;89.50;;;;;;1898779;74;21176;-83
2022/03/23 11:56:06;;;;;;;6.10;4.00;;;29.40;89.60;;;;;;1869413;75;21253;-83
2022/03/23 11:58:40;;;;;;;7.65;4.58;;;29.40;89.80;;;;;;1859826;77;21205;-83
2022/03/23 12:01:14;;;;;;;5.95;4.00;;;29.40;89.70;;;;;;1899093;74;21185;-84
2022/03/23 12:03:48;;;;;;;5.58;4.22;;;29.40;89.50;;;;;;1879075;74;21663;-83
2022/03/23 12:06:23;;;;;;;7.72;4.62;;;29.40;89.70;;;;;;1890921;74;21208;-83
2022/03/23 12:09:00;;;;;;;9.43;5.42;;;29.40;89.70;;;;;;1887100;76;21123;-85
2022/03/23 12:11:31;;;;;;;8.10;5.58;;;29.40;90.10;;;;;;1872750;74;21140;-84
2022/03/23 12:14:04;;;;;;;8.45;5.60;;;29.40;90.20;;;;;;1891889;74;21120;-84
2022/03/23 12:16:38;;;;;;;11.53;5.75;;;29.30;90.00;;;;;;1887056;74;21256;-85
2022/03/23 12:19:10;;;;;;;8.30;5.53;;;29.30;90.50;;;;;;1869212;76;21165;-84
2022/03/23 12:21:45;;;;;;;11.20;5.97;;;29.30;90.70;;;;;;1886266;74;21156;-81
2022/03/23 12:24:23;;;;;;;6.92;5.28;;;29.30;91.10;;;;;;1885797;74;21229;-83
2022/03/23 12:26:58;;;;;;;7.30;4.87;;;29.20;90.90;;;;;;1881248;74;21117;-83
2022/03/23 12:29:33;;;;;;;8.05;5.45;;;29.20;91.10;;;;;;1886958;74;21194;-84
2022/03/23 12:32:25;;;;;;;7.85;5.47;;;29.20;91.50;;;;;;1875470;74;21151;-83
2022/03/23 12:34:56;;;;;;;7.45;5.78;;;29.10;91.10;;;;;;1878659;74;21652;-86
2022/03/23 12:37:30;;;;;;;9.40;6.22;;;29.10;91.30;;;;;;1887275;74;21143;-83
2022/03/23 12:40:04;;;;;;;7.67;5.97;;;29.10;91.50;;;;;;1888405;74;21077;-82
2022/03/23 12:42:40;;;;;;;7.92;5.50;;;29.00;91.30;;;;;;1880037;74;21191;-83
2022/03/23 12:45:13;;;;;;;5.25;4.62;;;29.00;91.40;;;;;;1880201;74;21084;-85
2022/03/23 12:47:46;;;;;;;7.58;5.47;;;29.00;91.50;;;;;;1882744;74;21150;-84
2022/03/23 12:58:09;;;;;;;6.75;5.97;;;28.90;92.20;;;;;;1858927;76;21183;-83
2022/03/23 13:00:44;;;;;;;7.72;5.87;;;28.90;92.30;;;;;;1864071;76;21163;-83
2022/03/23 13:03:19;;;;;;;8.25;6.20;;;28.90;92.40;;;;;;1856965;76;21186;-83
2022/03/23 13:05:51;;;;;;;9.40;6.37;;;28.80;92.30;;;;;;1856823;76;21740;-81
2022/03/23 13:08:30;;;;;;;9.05;6.40;;;28.80;92.40;;;;;;1847608;76;21210;-83
2022/03/23 13:11:01;;;;;;;7.90;5.85;;;28.80;92.30;;;;;;1864194;76;21214;-84
2022/03/23 13:13:35;;;;;;;12.13;6.20;;;28.80;92.50;;;;;;1851953;77;21197;-84
2022/03/23 13:16:12;;;;;;;11.25;6.80;;;28.80;92.40;;;;;;1810213;78;21210;-84
2022/03/23 13:18:47;;;;;;;9.08;6.25;;;28.80;92.40;;;;;;1825574;78;21167;-83
2022/03/23 13:21:29;;;;;;;10.38;7.00;;;28.80;92.60;;;;;;1837623;77;21156;-82
2022/03/23 13:24:03;;;;;;;15.60;6.78;;;28.70;92.60;;;;;;1829309;77;21720;-81
2022/03/23 13:26:36;;;;;;;11.15;6.42;;;28.70;92.50;;;;;;1849845;75;21186;-83
2022/03/23 13:29:10;;;;;;;9.63;6.83;;;28.70;92.70;;;;;;1837648;77;21221;-81
2022/03/23 13:31:46;;;;;;;8.43;6.50;;;28.70;92.70;;;;;;1845516;77;21175;-82
2022/03/23 13:34:17;;;;;;;12.82;6.45;;;28.70;92.70;;;;;;1858856;76;21464;-83
2022/03/23 13:36:51;;;;;;;10.35;6.47;;;28.70;92.60;;;;;;1877737;76;21092;-83
2022/03/23 13:39:26;;;;;;;9.48;6.47;;;28.70;92.70;;;;;;1873520;75;21171;-82